sensor_id;sensor_type;location;lat;lon;timestamp;pressure;altitude;pressure_sealevel;temperature;humidity
30897;BME280;64229;52.246;21.054;2022-12-20T00:01:20;101323.16;;;-1.81;86.78
30897;BME280;64229;52.246;21.054;2022-12-20T00:03:48;101312.19;;;-1.93;87.55
30897;BME280;64229;52.246;21.054;2022-12-20T00:06:15;101318.28;;;-1.76;86.76
30897;BME280;64229;52.246;21.054;2022-12-20T00:08:40;101312.91;;;-1.75;87.68
30897;BME280;64229;52.246;21.054;2022-12-20T00:11:06;101307.69;;;-1.66;87.89
30897;BME280;64229;52.246;21.054;2022-12-20T00:13:32;101298.84;;;-1.65;88.71
30897;BME280;64229;52.246;21.054;2022-12-20T00:16:05;101301.13;;;-1.70;89.09
30897;BME280;64229;52.246;21.054;2022-12-20T00:18:31;101307.63;;;-1.83;89.38
30897;BME280;64229;52.246;21.054;2022-12-20T00:20:58;101292.44;;;-1.79;90.37
30897;BME280;64229;52.246;21.054;2022-12-20T00:23:24;101286.22;;;-1.78;90.76
30897;BME280;64229;52.246;21.054;2022-12-20T00:25:49;101285.75;;;-1.73;91.01
30897;BME280;64229;52.246;21.054;2022-12-20T00:28:15;101279.88;;;-1.67;91.62
30897;BME280;64229;52.246;21.054;2022-12-20T00:30:40;101274.81;;;-1.69;91.71
30897;BME280;64229;52.246;21.054;2022-12-20T00:33:05;101264.81;;;-1.73;92.15
30897;BME280;64229;52.246;21.054;2022-12-20T00:35:31;101267.94;;;-1.70;91.91
30897;BME280;64229;52.246;21.054;2022-12-20T00:37:56;101264.47;;;-1.79;92.97
30897;BME280;64229;52.246;21.054;2022-12-20T00:40:21;101273.63;;;-1.83;94.37
30897;BME280;64229;52.246;21.054;2022-12-20T00:42:47;101271.81;;;-1.90;94.66
30897;BME280;64229;52.246;21.054;2022-12-20T00:45:12;101267.69;;;-1.93;95.51
30897;BME280;64229;52.246;21.054;2022-12-20T00:47:38;101269.53;;;-1.85;95.66
30897;BME280;64229;52.246;21.054;2022-12-20T00:50:04;101276.94;;;-1.64;94.62
30897;BME280;64229;52.246;21.054;2022-12-20T00:52:29;101267.78;;;-1.52;93.83
30897;BME280;64229;52.246;21.054;2022-12-20T00:54:54;101243.72;;;-1.64;93.95
30897;BME280;64229;52.246;21.054;2022-12-20T00:57:20;101264.19;;;-1.51;94.34
30897;BME280;64229;52.246;21.054;2022-12-20T00:59:45;101265.00;;;-1.51;94.70
30897;BME280;64229;52.246;21.054;2022-12-20T01:02:10;101258.78;;;-1.41;94.74
30897;BME280;64229;52.246;21.054;2022-12-20T01:04:36;101257.31;;;-1.44;94.46
30897;BME280;64229;52.246;21.054;2022-12-20T01:07:01;101257.34;;;-1.36;94.51
30897;BME280;64229;52.246;21.054;2022-12-20T01:09:27;101239.81;;;-1.43;94.68
30897;BME280;64229;52.246;21.054;2022-12-20T01:11:52;101248.81;;;-1.30;95.12
30897;BME280;64229;52.246;21.054;2022-12-20T01:14:17;101246.38;;;-1.31;95.47
30897;BME280;64229;52.246;21.054;2022-12-20T01:16:44;101238.69;;;-1.33;95.92
30897;BME280;64229;52.246;21.054;2022-12-20T01:19:12;101243.59;;;-1.22;96.27
30897;BME280;64229;52.246;21.054;2022-12-20T01:21:38;101246.03;;;-1.28;96.32
30897;BME280;64229;52.246;21.054;2022-12-20T01:24:09;101238.34;;;-1.30;96.58
30897;BME280;64229;52.246;21.054;2022-12-20T01:26:34;101234.59;;;-1.27;97.20
30897;BME280;64229;52.246;21.054;2022-12-20T01:28:59;101235.22;;;-1.09;96.73
30897;BME280;64229;52.246;21.054;2022-12-20T01:31:26;101236.03;;;-1.08;96.87
30897;BME280;64229;52.246;21.054;2022-12-20T01:33:52;101232.41;;;-0.91;96.97
30897;BME280;64229;52.246;21.054;2022-12-20T01:36:23;101229.81;;;-0.91;97.96
30897;BME280;64229;52.246;21.054;2022-12-20T01:38:49;101224.09;;;-0.95;98.08
30897;BME280;64229;52.246;21.054;2022-12-20T01:41:19;101214.25;;;-0.93;98.83
30897;BME280;64229;52.246;21.054;2022-12-20T01:43:56;101193.28;;;-1.01;99.38
30897;BME280;64229;52.246;21.054;2022-12-20T01:46:24;101194.91;;;-0.92;99.56
30897;BME280;64229;52.246;21.054;2022-12-20T01:49:12;101182.81;;;-1.01;100.00
30897;BME280;64229;52.246;21.054;2022-12-20T01:51:44;101185.13;;;-1.06;100.00
30897;BME280;64229;52.246;21.054;2022-12-20T01:54:32;101190.84;;;-1.02;100.00
30897;BME280;64229;52.246;21.054;2022-12-20T01:57:06;101179.84;;;-0.90;100.00
30897;BME280;64229;52.246;21.054;2022-12-20T01:59:35;101170.34;;;-0.91;100.00
30897;BME280;64229;52.246;21.054;2022-12-20T02:02:03;101164.59;;;-0.86;100.00
30897;BME280;64229;52.246;21.054;2022-12-20T02:04:31;101160.63;;;-0.74;100.00
30897;BME280;64229;52.246;21.054;2022-12-20T02:06:58;101162.38;;;-0.66;100.00
30897;BME280;64229;52.246;21.054;2022-12-20T02:09:23;101157.31;;;-0.68;100.00
30897;BME280;64229;52.246;21.054;2022-12-20T02:11:53;101158.78;;;-0.65;100.00
30897;BME280;64229;52.246;21.054;2022-12-20T02:29:11;101144.16;;;-0.51;100.00
30897;BME280;64229;52.246;21.054;2022-12-20T02:32:13;101146.09;;;-0.53;100.00
30897;BME280;64229;52.246;21.054;2022-12-20T02:34:41;101140.00;;;-0.46;100.00
30897;BME280;64229;52.246;21.054;2022-12-20T02:37:07;101135.75;;;-0.47;100.00
30897;BME280;64229;52.246;21.054;2022-12-20T02:39:33;101143.13;;;-0.42;100.00
30897;BME280;64229;52.246;21.054;2022-12-20T02:42:06;101120.88;;;-0.54;100.00
30897;BME280;64229;52.246;21.054;2022-12-20T02:44:32;101134.09;;;-0.40;100.00
30897;BME280;64229;52.246;21.054;2022-12-20T02:47:26;101128.50;;;-0.37;100.00
30897;BME280;64229;52.246;21.054;2022-12-20T02:49:54;101127.81;;;-0.31;100.00
30897;BME280;64229;52.246;21.054;2022-12-20T02:52:21;101136.56;;;-0.15;100.00
30897;BME280;64229;52.246;21.054;2022-12-20T02:54:51;101138.84;;;-0.12;100.00
30897;BME280;64229;52.246;21.054;2022-12-20T02:57:22;101129.81;;;-0.10;100.00
30897;BME280;64229;52.246;21.054;2022-12-20T03:00:03;101136.97;;;-0.04;100.00
30897;BME280;64229;52.246;21.054;2022-12-20T03:02:31;101131.44;;;-0.09;100.00
30897;BME280;64229;52.246;21.054;2022-12-20T03:05:19;101122.91;;;-0.11;100.00
30897;BME280;64229;52.246;21.054;2022-12-20T03:07:46;101117.66;;;-0.11;100.00
30897;BME280;64229;52.246;21.054;2022-12-20T03:10:11;101114.72;;;-0.08;100.00
30897;BME280;64229;52.246;21.054;2022-12-20T03:12:37;101111.56;;;-0.03;100.00
30897;BME280;64229;52.246;21.054;2022-12-20T03:15:02;101112.94;;;0.08;100.00
30897;BME280;64229;52.246;21.054;2022-12-20T03:17:27;101114.16;;;0.20;100.00
30897;BME280;64229;52.246;21.054;2022-12-20T03:19:53;101110.16;;;0.09;100.00
30897;BME280;64229;52.246;21.054;2022-12-20T03:22:18;101125.50;;;-0.03;100.00
30897;BME280;64229;52.246;21.054;2022-12-20T03:24:44;101119.56;;;0.04;100.00
30897;BME280;64229;52.246;21.054;2022-12-20T03:27:09;101119.31;;;0.13;100.00
30897;BME280;64229;52.246;21.054;2022-12-20T03:29:35;101117.31;;;0.15;100.00
30897;BME280;64229;52.246;21.054;2022-12-20T03:32:00;101127.94;;;0.22;100.00
30897;BME280;64229;52.246;21.054;2022-12-20T03:34:26;101107.28;;;0.19;100.00
30897;BME280;64229;52.246;21.054;2022-12-20T03:36:51;101117.28;;;0.23;100.00
30897;BME280;64229;52.246;21.054;2022-12-20T03:39:16;101114.72;;;0.30;100.00
30897;BME280;64229;52.246;21.054;2022-12-20T03:41:42;101104.63;;;0.42;100.00
30897;BME280;64229;52.246;21.054;2022-12-20T03:44:07;101100.47;;;0.47;100.00
30897;BME280;64229;52.246;21.054;2022-12-20T03:46:33;101117.66;;;0.35;100.00
30897;BME280;64229;52.246;21.054;2022-12-20T03:48:58;101116.31;;;0.39;100.00
30897;BME280;64229;52.246;21.054;2022-12-20T03:51:24;101100.09;;;0.36;100.00
30897;BME280;64229;52.246;21.054;2022-12-20T03:53:49;101104.72;;;0.48;100.00
30897;BME280;64229;52.246;21.054;2022-12-20T03:56:14;101107.34;;;0.48;100.00
30897;BME280;64229;52.246;21.054;2022-12-20T03:58:40;101117.22;;;0.46;100.00
30897;BME280;64229;52.246;21.054;2022-12-20T04:01:20;101110.47;;;0.29;100.00
30897;BME280;64229;52.246;21.054;2022-12-20T04:03:46;101098.34;;;0.28;100.00
30897;BME280;64229;52.246;21.054;2022-12-20T04:06:11;101113.16;;;0.44;100.00
30897;BME280;64229;52.246;21.054;2022-12-20T04:08:37;101111.78;;;0.48;100.00
30897;BME280;64229;52.246;21.054;2022-12-20T04:11:02;101120.06;;;0.60;100.00
30897;BME280;64229;52.246;21.054;2022-12-20T04:13:48;101113.34;;;0.57;100.00
30897;BME280;64229;52.246;21.054;2022-12-20T04:16:16;101109.66;;;0.66;100.00
30897;BME280;64229;52.246;21.054;2022-12-20T04:18:42;101114.81;;;0.74;100.00
30897;BME280;64229;52.246;21.054;2022-12-20T04:21:08;101101.50;;;0.76;100.00
30897;BME280;64229;52.246;21.054;2022-12-20T04:23:35;101090.44;;;0.80;100.00
30897;BME280;64229;52.246;21.054;2022-12-20T04:26:01;101067.88;;;0.71;100.00
30897;BME280;64229;52.246;21.054;2022-12-20T04:28:27;101056.28;;;0.66;100.00
30897;BME280;64229;52.246;21.054;2022-12-20T04:30:53;101071.88;;;0.67;100.00
30897;BME280;64229;52.246;21.054;2022-12-20T04:33:18;101055.63;;;0.49;100.00
30897;BME280;64229;52.246;21.054;2022-12-20T04:35:44;101074.66;;;0.51;100.00
30897;BME280;64229;52.246;21.054;2022-12-20T04:38:09;101076.47;;;0.50;100.00
30897;BME280;64229;52.246;21.054;2022-12-20T04:40:34;101068.50;;;0.58;100.00
30897;BME280;64229;52.246;21.054;2022-12-20T04:42:59;101076.84;;;0.62;100.00
30897;BME280;64229;52.246;21.054;2022-12-20T04:45:25;101077.56;;;0.56;100.00
30897;BME280;64229;52.246;21.054;2022-12-20T04:47:50;101087.53;;;0.61;100.00
30897;BME280;64229;52.246;21.054;2022-12-20T04:50:15;101085.97;;;0.51;100.00
30897;BME280;64229;52.246;21.054;2022-12-20T04:52:42;101086.63;;;0.53;100.00
30897;BME280;64229;52.246;21.054;2022-12-20T04:55:26;101084.19;;;0.67;100.00
30897;BME280;64229;52.246;21.054;2022-12-20T04:57:51;101095.22;;;0.62;100.00
30897;BME280;64229;52.246;21.054;2022-12-20T05:00:17;101088.81;;;0.65;100.00
30897;BME280;64229;52.246;21.054;2022-12-20T05:02:42;101084.00;;;0.68;100.00
30897;BME280;64229;52.246;21.054;2022-12-20T05:05:08;101080.75;;;0.81;100.00
30897;BME280;64229;52.246;21.054;2022-12-20T05:07:33;101078.56;;;0.70;100.00
30897;BME280;64229;52.246;21.054;2022-12-20T05:09:59;101085.00;;;0.67;100.00
30897;BME280;64229;52.246;21.054;2022-12-20T05:12:24;101074.31;;;0.83;100.00
30897;BME280;64229;52.246;21.054;2022-12-20T05:14:49;101067.53;;;0.89;99.74
30897;BME280;64229;52.246;21.054;2022-12-20T05:17:15;101073.06;;;0.79;100.00
30897;BME280;64229;52.246;21.054;2022-12-20T05:19:40;101068.78;;;0.78;100.00
30897;BME280;64229;52.246;21.054;2022-12-20T05:22:05;101068.16;;;0.76;100.00
30897;BME280;64229;52.246;21.054;2022-12-20T05:24:49;101061.06;;;0.62;100.00
30897;BME280;64229;52.246;21.054;2022-12-20T05:27:33;101067.16;;;0.63;100.00
30897;BME280;64229;52.246;21.054;2022-12-20T05:29:58;101064.00;;;0.67;100.00
30897;BME280;64229;52.246;21.054;2022-12-20T05:32:24;101063.34;;;0.50;100.00
30897;BME280;64229;52.246;21.054;2022-12-20T05:34:49;101060.72;;;0.50;100.00
30897;BME280;64229;52.246;21.054;2022-12-20T05:37:14;101042.59;;;0.70;100.00
30897;BME280;64229;52.246;21.054;2022-12-20T05:39:40;101038.91;;;0.65;100.00
30897;BME280;64229;52.246;21.054;2022-12-20T05:42:05;101047.41;;;0.67;100.00
30897;BME280;64229;52.246;21.054;2022-12-20T05:44:30;101049.75;;;0.62;100.00
30897;BME280;64229;52.246;21.054;2022-12-20T05:46:56;101058.44;;;0.62;100.00
30897;BME280;64229;52.246;21.054;2022-12-20T05:49:21;101039.34;;;0.53;100.00
30897;BME280;64229;52.246;21.054;2022-12-20T05:51:46;101060.09;;;0.78;100.00
30897;BME280;64229;52.246;21.054;2022-12-20T05:54:12;101055.91;;;0.83;100.00
30897;BME280;64229;52.246;21.054;2022-12-20T05:56:37;101054.28;;;0.68;100.00
30897;BME280;64229;52.246;21.054;2022-12-20T05:59:02;101053.31;;;0.69;100.00
30897;BME280;64229;52.246;21.054;2022-12-20T06:01:28;101067.63;;;0.66;100.00
30897;BME280;64229;52.246;21.054;2022-12-20T06:03:53;101057.94;;;0.67;100.00
30897;BME280;64229;52.246;21.054;2022-12-20T06:06:18;101054.28;;;0.68;100.00
30897;BME280;64229;52.246;21.054;2022-12-20T06:08:44;101057.19;;;0.73;100.00
30897;BME280;64229;52.246;21.054;2022-12-20T06:11:09;101053.22;;;0.77;100.00
30897;BME280;64229;52.246;21.054;2022-12-20T06:13:34;101065.34;;;0.78;100.00
30897;BME280;64229;52.246;21.054;2022-12-20T06:16:00;101061.09;;;0.92;100.00
30897;BME280;64229;52.246;21.054;2022-12-20T06:18:26;101061.72;;;0.94;100.00
30897;BME280;64229;52.246;21.054;2022-12-20T06:20:52;101047.28;;;1.04;99.48
30897;BME280;64229;52.246;21.054;2022-12-20T06:23:18;101042.88;;;0.90;99.72
30897;BME280;64229;52.246;21.054;2022-12-20T06:25:44;101061.09;;;0.92;100.00
30897;BME280;64229;52.246;21.054;2022-12-20T06:28:10;101067.25;;;0.99;99.49
30897;BME280;64229;52.246;21.054;2022-12-20T06:30:35;101069.88;;;0.99;99.96
30897;BME280;64229;52.246;21.054;2022-12-20T06:33:01;101066.25;;;1.00;100.00
30897;BME280;64229;52.246;21.054;2022-12-20T06:35:27;101061.44;;;1.18;99.07
30897;BME280;64229;52.246;21.054;2022-12-20T06:37:53;101056.69;;;1.13;98.41
30897;BME280;64229;52.246;21.054;2022-12-20T06:40:18;101049.56;;;1.07;98.87
30897;BME280;64229;52.246;21.054;2022-12-20T06:42:44;101065.56;;;1.27;97.66
30897;BME280;64229;52.246;21.054;2022-12-20T06:45:09;101042.44;;;1.23;97.35
30897;BME280;64229;52.246;21.054;2022-12-20T06:47:35;101063.25;;;1.18;97.15
30897;BME280;64229;52.246;21.054;2022-12-20T06:50:01;101051.53;;;1.05;98.16
30897;BME280;64229;52.246;21.054;2022-12-20T06:52:26;101063.53;;;1.08;98.65
30897;BME280;64229;52.246;21.054;2022-12-20T06:54:52;101064.41;;;1.30;97.31
30897;BME280;64229;52.246;21.054;2022-12-20T06:57:17;101073.00;;;1.24;97.53
30897;BME280;64229;52.246;21.054;2022-12-20T06:59:43;101069.47;;;1.31;97.18
30897;BME280;64229;52.246;21.054;2022-12-20T07:02:11;101075.72;;;1.30;97.22
30897;BME280;64229;52.246;21.054;2022-12-20T07:04:37;101044.31;;;1.07;97.84
30897;BME280;64229;52.246;21.054;2022-12-20T07:07:03;101080.84;;;1.17;97.84
30897;BME280;64229;52.246;21.054;2022-12-20T07:09:28;101066.22;;;1.14;98.26
30897;BME280;64229;52.246;21.054;2022-12-20T07:11:54;101075.97;;;1.35;97.09
30897;BME280;64229;52.246;21.054;2022-12-20T07:14:19;101071.53;;;1.36;96.64
30897;BME280;64229;52.246;21.054;2022-12-20T07:16:45;101074.16;;;1.36;97.01
30897;BME280;64229;52.246;21.054;2022-12-20T07:19:12;101073.34;;;1.35;97.51
30897;BME280;64229;52.246;21.054;2022-12-20T07:21:38;101070.47;;;1.30;97.73
30897;BME280;64229;52.246;21.054;2022-12-20T07:24:03;101073.13;;;1.52;96.42
30897;BME280;64229;52.246;21.054;2022-12-20T07:26:30;101067.16;;;1.43;96.15
30897;BME280;64229;52.246;21.054;2022-12-20T07:28:55;101063.91;;;1.41;97.00
30897;BME280;64229;52.246;21.054;2022-12-20T07:31:21;101065.88;;;1.54;96.07
30897;BME280;64229;52.246;21.054;2022-12-20T07:33:46;101066.50;;;1.56;95.85
30897;BME280;64229;52.246;21.054;2022-12-20T07:36:12;101061.03;;;1.57;95.43
30897;BME280;64229;52.246;21.054;2022-12-20T07:38:38;101070.06;;;1.69;94.38
30897;BME280;64229;52.246;21.054;2022-12-20T07:41:12;101075.31;;;1.69;94.61
30897;BME280;64229;52.246;21.054;2022-12-20T07:43:38;101069.19;;;1.62;94.77
30897;BME280;64229;52.246;21.054;2022-12-20T07:46:05;101067.63;;;1.68;94.94
30897;BME280;64229;52.246;21.054;2022-12-20T07:48:31;101057.25;;;1.60;95.22
30897;BME280;64229;52.246;21.054;2022-12-20T07:51:05;101053.59;;;1.61;95.43
30897;BME280;64229;52.246;21.054;2022-12-20T07:53:33;101056.09;;;1.69;95.08
30897;BME280;64229;52.246;21.054;2022-12-20T07:56:00;101064.25;;;1.95;92.48
30897;BME280;64229;52.246;21.054;2022-12-20T07:58:27;101062.66;;;2.01;92.04
30897;BME280;64229;52.246;21.054;2022-12-20T08:00:53;101073.06;;;2.09;91.39
30897;BME280;64229;52.246;21.054;2022-12-20T08:03:23;101044.31;;;1.86;91.68
30897;BME280;64229;52.246;21.054;2022-12-20T08:05:54;101069.94;;;1.99;91.52
30897;BME280;64229;52.246;21.054;2022-12-20T08:08:21;101066.63;;;1.90;92.12
30897;BME280;64229;52.246;21.054;2022-12-20T08:10:48;101065.00;;;1.89;92.78
30897;BME280;64229;52.246;21.054;2022-12-20T08:13:14;101076.13;;;1.91;93.24
30897;BME280;64229;52.246;21.054;2022-12-20T08:15:40;101076.53;;;1.88;92.12
30897;BME280;64229;52.246;21.054;2022-12-20T08:18:05;101072.66;;;1.84;92.40
30897;BME280;64229;52.246;21.054;2022-12-20T08:20:31;101071.56;;;1.79;92.28
30897;BME280;64229;52.246;21.054;2022-12-20T08:22:56;101069.31;;;1.76;91.81
30897;BME280;64229;52.246;21.054;2022-12-20T08:25:22;101072.66;;;1.84;91.82
30897;BME280;64229;52.246;21.054;2022-12-20T08:27:48;101059.50;;;1.84;91.52
30897;BME280;64229;52.246;21.054;2022-12-20T08:30:14;101069.56;;;2.02;90.72
30897;BME280;64229;52.246;21.054;2022-12-20T08:32:39;101063.06;;;1.98;90.29
30897;BME280;64229;52.246;21.054;2022-12-20T08:35:05;101058.78;;;1.97;89.75
30897;BME280;64229;52.246;21.054;2022-12-20T08:37:31;101049.38;;;2.09;89.76
30897;BME280;64229;52.246;21.054;2022-12-20T08:39:56;101053.50;;;2.18;89.40
30897;BME280;64229;52.246;21.054;2022-12-20T08:42:22;101055.31;;;2.18;88.89
30897;BME280;64229;52.246;21.054;2022-12-20T08:44:47;101055.47;;;1.88;89.36
30897;BME280;64229;52.246;21.054;2022-12-20T08:47:12;101060.34;;;1.91;89.91
30897;BME280;64229;52.246;21.054;2022-12-20T08:49:38;101060.94;;;1.87;89.84
30897;BME280;64229;52.246;21.054;2022-12-20T08:52:03;101051.28;;;1.94;88.98
30897;BME280;64229;52.246;21.054;2022-12-20T08:54:28;101056.06;;;2.12;88.27
30897;BME280;64229;52.246;21.054;2022-12-20T08:56:54;101051.88;;;2.17;88.21
30897;BME280;64229;52.246;21.054;2022-12-20T08:59:19;101051.13;;;2.23;88.27
30897;BME280;64229;52.246;21.054;2022-12-20T09:01:45;101055.94;;;2.20;88.28
30897;BME280;64229;52.246;21.054;2022-12-20T09:04:10;101045.41;;;2.20;87.94
30897;BME280;64229;52.246;21.054;2022-12-20T09:06:36;101059.16;;;2.15;86.22
30897;BME280;64229;52.246;21.054;2022-12-20T09:09:02;101056.22;;;2.03;87.58
30897;BME280;64229;52.246;21.054;2022-12-20T09:11:28;101054.63;;;2.09;87.70
30897;BME280;64229;52.246;21.054;2022-12-20T09:13:56;101045.44;;;1.98;88.09
30897;BME280;64229;52.246;21.054;2022-12-20T09:16:24;101052.28;;;2.21;86.84
30897;BME280;64229;52.246;21.054;2022-12-20T09:18:51;101052.44;;;2.41;85.10
30897;BME280;64229;52.246;21.054;2022-12-20T09:21:18;101055.47;;;2.38;85.14
30897;BME280;64229;52.246;21.054;2022-12-20T09:23:43;101055.22;;;2.32;85.12
30897;BME280;64229;52.246;21.054;2022-12-20T09:26:13;101047.38;;;2.39;85.28
30897;BME280;64229;52.246;21.054;2022-12-20T09:28:40;101050.75;;;2.61;85.45
30897;BME280;64229;52.246;21.054;2022-12-20T09:31:07;101050.69;;;2.54;84.61
30897;BME280;64229;52.246;21.054;2022-12-20T09:33:34;101040.06;;;2.69;84.15
30897;BME280;64229;52.246;21.054;2022-12-20T09:36:00;101029.63;;;2.96;83.23
30897;BME280;64229;52.246;21.054;2022-12-20T09:38:27;101036.44;;;3.25;82.11
30897;BME280;64229;52.246;21.054;2022-12-20T09:40:56;101031.78;;;3.20;81.66
30897;BME280;64229;52.246;21.054;2022-12-20T09:43:22;101036.03;;;3.21;81.01
30897;BME280;64229;52.246;21.054;2022-12-20T09:45:52;101029.16;;;3.40;80.63
30897;BME280;64229;52.246;21.054;2022-12-20T09:48:21;101037.56;;;3.70;79.57
30897;BME280;64229;52.246;21.054;2022-12-20T09:51:03;101027.44;;;3.73;79.34
30897;BME280;64229;52.246;21.054;2022-12-20T09:56:29;101049.19;;;3.95;77.80
30897;BME280;64229;52.246;21.054;2022-12-20T09:58:59;101055.66;;;3.99;77.80
30897;BME280;64229;52.246;21.054;2022-12-20T10:01:27;101056.47;;;3.73;78.34
30897;BME280;64229;52.246;21.054;2022-12-20T10:03:55;101055.63;;;3.66;79.05
30897;BME280;64229;52.246;21.054;2022-12-20T10:09:02;101045.91;;;3.73;78.32
30897;BME280;64229;52.246;21.054;2022-12-20T10:25:19;101024.50;;;3.35;79.17
30897;BME280;64229;52.246;21.054;2022-12-20T10:27:45;101036.94;;;3.55;78.30
30897;BME280;64229;52.246;21.054;2022-12-20T10:30:18;101045.28;;;3.65;78.39
30897;BME280;64229;52.246;21.054;2022-12-20T10:32:47;101042.41;;;3.53;78.96
30897;BME280;64229;52.246;21.054;2022-12-20T10:37:55;101026.81;;;3.65;77.68
30897;BME280;64229;52.246;21.054;2022-12-20T10:40:27;101030.47;;;3.64;77.24
30897;BME280;64229;52.246;21.054;2022-12-20T10:42:53;101021.94;;;3.62;76.98
30897;BME280;64229;52.246;21.054;2022-12-20T10:47:50;101008.44;;;3.24;79.04
30897;BME280;64229;52.246;21.054;2022-12-20T10:50:21;101014.13;;;3.27;79.19
30897;BME280;64229;52.246;21.054;2022-12-20T10:53:21;101016.59;;;3.48;78.06
30897;BME280;64229;52.246;21.054;2022-12-20T10:55:47;101019.28;;;3.68;77.25
30897;BME280;64229;52.246;21.054;2022-12-20T10:58:15;101006.72;;;3.77;76.52
30897;BME280;64229;52.246;21.054;2022-12-20T11:00:42;101007.72;;;3.63;77.54
30897;BME280;64229;52.246;21.054;2022-12-20T11:03:16;100998.78;;;3.64;77.73
30897;BME280;64229;52.246;21.054;2022-12-20T11:08:24;100963.63;;;3.43;77.60
30897;BME280;64229;52.246;21.054;2022-12-20T11:13:37;100970.97;;;3.94;75.76
30897;BME280;64229;52.246;21.054;2022-12-20T11:16:03;100963.22;;;4.06;75.44
30897;BME280;64229;52.246;21.054;2022-12-20T11:23:42;100940.72;;;3.84;76.10
30897;BME280;64229;52.246;21.054;2022-12-20T11:31:47;100945.34;;;3.48;77.11
30897;BME280;64229;52.246;21.054;2022-12-20T11:34:37;100961.59;;;3.59;77.27
30897;BME280;64229;52.246;21.054;2022-12-20T11:37:22;100955.72;;;3.57;77.38
30897;BME280;64229;52.246;21.054;2022-12-20T11:45:06;100958.56;;;3.75;77.26
30897;BME280;64229;52.246;21.054;2022-12-20T11:47:53;100955.94;;;3.62;77.53
30897;BME280;64229;52.246;21.054;2022-12-20T11:53:12;100944.75;;;3.66;77.79
30897;BME280;64229;52.246;21.054;2022-12-20T11:55:42;100936.84;;;3.66;78.08
30897;BME280;64229;52.246;21.054;2022-12-20T11:58:19;100941.31;;;3.79;77.25
30897;BME280;64229;52.246;21.054;2022-12-20T12:01:06;100943.53;;;3.95;77.11
30897;BME280;64229;52.246;21.054;2022-12-20T12:03:36;100938.22;;;4.09;75.77
30897;BME280;64229;52.246;21.054;2022-12-20T12:06:10;100926.25;;;3.93;75.74
30897;BME280;64229;52.246;21.054;2022-12-20T12:08:46;100932.13;;;4.08;74.87
30897;BME280;64229;52.246;21.054;2022-12-20T12:11:23;100938.41;;;4.20;74.81
30897;BME280;64229;52.246;21.054;2022-12-20T12:13:51;100938.78;;;4.24;74.38
30897;BME280;64229;52.246;21.054;2022-12-20T12:16:36;100939.00;;;4.29;74.36
30897;BME280;64229;52.246;21.054;2022-12-20T12:19:08;100939.88;;;3.96;75.11
30897;BME280;64229;52.246;21.054;2022-12-20T12:21:49;100938.66;;;3.86;76.33
30897;BME280;64229;52.246;21.054;2022-12-20T12:24:40;100931.94;;;3.90;76.45
30897;BME280;64229;52.246;21.054;2022-12-20T12:27:25;100922.00;;;4.05;76.02
30897;BME280;64229;52.246;21.054;2022-12-20T12:29:56;100923.81;;;4.04;74.46
30897;BME280;64229;52.246;21.054;2022-12-20T12:32:59;100919.47;;;4.30;74.29
30897;BME280;64229;52.246;21.054;2022-12-20T12:38:22;100914.41;;;4.28;73.95
30897;BME280;64229;52.246;21.054;2022-12-20T12:43:56;100938.63;;;3.92;75.60
30897;BME280;64229;52.246;21.054;2022-12-20T12:46:30;100929.88;;;4.18;74.32
30897;BME280;64229;52.246;21.054;2022-12-20T12:49:01;100934.16;;;4.13;74.57
30897;BME280;64229;52.246;21.054;2022-12-20T12:51:32;100926.00;;;4.27;73.49
30897;BME280;64229;52.246;21.054;2022-12-20T12:54:16;100925.38;;;4.32;72.72
30897;BME280;64229;52.246;21.054;2022-12-20T12:56:50;100921.47;;;4.34;72.65
30897;BME280;64229;52.246;21.054;2022-12-20T12:59:21;100918.47;;;4.31;73.28
30897;BME280;64229;52.246;21.054;2022-12-20T13:04:51;100940.41;;;4.25;73.54
30897;BME280;64229;52.246;21.054;2022-12-20T13:07:47;100945.13;;;4.10;73.97
30897;BME280;64229;52.246;21.054;2022-12-20T13:12:55;100928.72;;;3.55;76.53
30897;BME280;64229;52.246;21.054;2022-12-20T13:20:28;100943.97;;;3.72;76.10
30897;BME280;64229;52.246;21.054;2022-12-20T13:30:47;100959.16;;;3.51;77.25
30897;BME280;64229;52.246;21.054;2022-12-20T13:36:03;100960.63;;;3.73;76.08
30897;BME280;64229;52.246;21.054;2022-12-20T13:49:40;100964.88;;;3.87;75.46
30897;BME280;64229;52.246;21.054;2022-12-20T13:52:28;100960.38;;;3.81;75.69
30897;BME280;64229;52.246;21.054;2022-12-20T13:54:59;100962.03;;;3.62;76.22
30897;BME280;64229;52.246;21.054;2022-12-20T13:57:39;100959.19;;;3.64;76.62
30897;BME280;64229;52.246;21.054;2022-12-20T14:00:14;100969.53;;;3.72;76.35
30897;BME280;64229;52.246;21.054;2022-12-20T14:02:41;100961.00;;;3.70;76.33
30897;BME280;64229;52.246;21.054;2022-12-20T14:05:17;100964.06;;;3.67;76.39
30897;BME280;64229;52.246;21.054;2022-12-20T14:07:55;100944.38;;;3.63;76.63
30897;BME280;64229;52.246;21.054;2022-12-20T14:10:24;100947.59;;;3.65;76.72
30897;BME280;64229;52.246;21.054;2022-12-20T14:12:52;100935.81;;;3.54;76.87
30897;BME280;64229;52.246;21.054;2022-12-20T14:15:31;100932.97;;;3.56;77.46
30897;BME280;64229;52.246;21.054;2022-12-20T14:18:24;100926.66;;;3.50;77.61
30897;BME280;64229;52.246;21.054;2022-12-20T14:20:57;100915.91;;;3.58;77.57
30897;BME280;64229;52.246;21.054;2022-12-20T14:23:44;100925.47;;;3.46;77.94
30897;BME280;64229;52.246;21.054;2022-12-20T14:26:14;100921.38;;;3.37;78.44
30897;BME280;64229;52.246;21.054;2022-12-20T14:28:42;100911.03;;;3.35;78.66
30897;BME280;64229;52.246;21.054;2022-12-20T14:40:13;100928.69;;;3.22;79.47
30897;BME280;64229;52.246;21.054;2022-12-20T14:42:39;100933.34;;;3.13;79.89
30897;BME280;64229;52.246;21.054;2022-12-20T14:47:33;100932.31;;;3.01;80.19